Austin, Texas
Traffic Map
Current Weather Conditions
Austin, Texas
Overcast Light Rain
Overcast

Feels Like: 8°
Wind Chill: Ceiling: 900
Heat Index: Visibility: 8mi
Dew Point: Wind: 5mph
Humidity: 93% Direction: ° ()
Pressure: 29.89in Gusts: 0mph
Raw Report DataKATT 051300Z AUTO VRB04KT 8SM -RA BKN009 BKN025 OVC050 09/08 A2989 RMK AO2 CIG 006V012 P0000 T00890078
Traffic Incident Summary
Active as of:
Severity:
Category:
InformationThere was an issue retrieving the traffic information for this location. Please try a different location or try again shortly.
Advertisements
Track Severe Weather on mobile